Time;durP1;ratioP1;P1;durP2;ratioP2;P2;SDS_P1;SDS_P2;PMS_P1;PMS_P2;Temp;Humidity;BMP_temperature;BMP_pressure;BME280_temperature;BME280_humidity;BME280_pressure;Samples;Min_cycle;Max_cycle;Signal;HPM_P1;HPM_P2
2023/06/04 00:00:05;;;;;;;7.15;1.50;;;;;;;19.68;32.38;102021.94;6191483;23;20279;-62
2023/06/04 00:02:34;;;;;;;3.35;1.67;;;;;;;19.66;32.23;102030.38;6192036;23;20092;-63
2023/06/04 00:05:02;;;;;;;3.10;1.40;;;;;;;19.63;32.42;102028.16;6190716;23;20076;-65
2023/06/04 00:07:30;;;;;;;4.25;1.98;;;;;;;19.61;32.52;102030.31;6189971;23;20029;-63
2023/06/04 00:09:58;;;;;;;3.65;1.63;;;;;;;19.58;32.59;102030.00;6190748;23;20025;-64
2023/06/04 00:12:26;;;;;;;3.95;1.80;;;;;;;19.55;32.77;102023.16;6189578;23;20035;-63
2023/06/04 00:14:54;;;;;;;4.28;1.40;;;;;;;19.54;32.92;102028.88;6190370;23;20060;-63
2023/06/04 00:17:21;;;;;;;2.08;1.60;;;;;;;19.51;32.82;102024.72;6190386;23;20021;-65
2023/06/04 00:19:51;;;;;;;2.22;1.52;;;;;;;19.48;33.17;102020.59;6190253;23;20025;-64
2023/06/04 00:22:18;;;;;;;5.00;1.77;;;;;;;19.46;33.10;102017.28;6189071;23;20617;-64
2023/06/04 00:24:46;;;;;;;2.65;1.67;;;;;;;19.43;33.30;102023.25;6190936;23;20108;-64
2023/06/04 00:27:14;;;;;;;5.28;1.10;;;;;;;19.42;33.41;102021.59;6188967;23;20025;-63
2023/06/04 00:29:42;;;;;;;3.28;1.67;;;;;;;19.39;33.39;102022.09;6192108;23;20025;-64
2023/06/04 00:32:10;;;;;;;3.35;1.63;;;;;;;19.36;33.72;102022.59;6192307;23;20028;-64
2023/06/04 00:34:38;;;;;;;4.13;1.65;;;;;;;19.35;33.79;102020.13;6192122;23;20028;-64
2023/06/04 00:37:07;;;;;;;4.85;1.35;;;;;;;19.33;33.76;102025.00;6190172;23;20033;-64
2023/06/04 00:39:35;;;;;;;2.53;1.58;;;;;;;19.30;34.15;102020.06;6191889;23;20044;-64
2023/06/04 00:42:03;;;;;;;6.88;2.33;;;;;;;19.28;33.99;102023.03;6188121;23;20036;-60
2023/06/04 00:44:31;;;;;;;3.65;1.80;;;;;;;19.26;34.14;102027.09;6188963;23;20040;-64
2023/06/04 00:46:59;;;;;;;3.72;1.58;;;;;;;19.24;34.47;102021.88;6189715;23;20293;-64
2023/06/04 00:49:27;;;;;;;5.75;1.55;;;;;;;19.21;34.45;102022.38;6189527;23;20025;-64
2023/06/04 00:51:55;;;;;;;2.47;1.65;;;;;;;19.20;34.51;102020.72;6188344;23;20029;-64
2023/06/04 00:54:26;;;;;;;4.25;1.67;;;;;;;19.17;34.55;102018.50;6189918;23;20029;-64
2023/06/04 00:56:53;;;;;;;3.47;1.50;;;;;;;19.16;34.51;102014.97;6188676;23;20625;-64
2023/06/04 00:59:22;;;;;;;2.67;1.60;;;;;;;19.16;34.74;102019.59;6189418;23;20029;-63
2023/06/04 01:01:56;;;;;;;2.50;1.60;;;;;;;19.14;34.64;102021.75;6189544;23;20032;-64
2023/06/04 01:04:28;;;;;;;5.65;1.58;;;;;;;19.12;34.84;102012.97;6190444;23;20025;-64
2023/06/04 01:06:59;;;;;;;2.50;1.60;;;;;;;19.08;35.06;102009.94;6189403;23;20028;-64
2023/06/04 01:09:28;;;;;;;2.97;1.40;;;;;;;19.09;34.97;102017.03;6189641;23;20087;-63
2023/06/04 01:11:58;;;;;;;5.25;2.00;;;;;;;19.08;35.17;102015.38;6188651;23;20029;-63
2023/06/04 01:14:26;;;;;;;2.03;1.40;;;;;;;19.03;35.35;102015.34;6189733;23;20104;-64
2023/06/04 01:17:02;;;;;;;4.00;1.13;;;;;;;19.01;35.26;102012.03;6190514;23;20025;-63
2023/06/04 01:19:59;;;;;;;3.75;1.33;;;;;;;19.01;35.62;102019.38;6190582;23;20021;-64
2023/06/04 01:22:36;;;;;;;2.40;1.73;;;;;;;18.97;35.58;102024.50;6190160;23;20060;-64
2023/06/04 01:25:06;;;;;;;;;;;;;;;18.96;35.58;102022.88;6191446;23;20079;-64
2023/06/04 01:27:35;;;;;;;2.67;1.10;;;;;;;18.95;35.78;102034.00;6190685;23;19931;-63
2023/06/04 01:30:04;;;;;;;3.97;1.67;;;;;;;18.92;35.80;102034.50;6191137;23;20148;-63
2023/06/04 01:32:32;;;;;;;3.53;1.45;;;;;;;18.89;36.07;102033.09;6191891;23;20025;-64
2023/06/04 01:35:00;;;;;;;4.13;1.50;;;;;;;18.88;36.22;102036.06;6192453;23;20101;-64
2023/06/04 01:37:28;;;;;;;3.55;1.48;;;;;;;18.85;36.08;102030.06;6192385;23;20025;-64
2023/06/04 01:39:56;;;;;;;7.30;1.48;;;;;;;18.83;36.33;102034.09;6191851;23;20077;-62
2023/06/04 01:42:25;;;;;;;4.00;1.73;;;;;;;18.81;36.32;102031.63;6190956;23;20032;-64
2023/06/04 01:44:53;;;;;;;4.47;1.75;;;;;;;18.81;36.24;102034.34;6191265;23;20035;-64
2023/06/04 01:47:21;;;;;;;5.05;2.00;;;;;;;18.78;36.51;102034.00;6190050;23;20406;-64
2023/06/04 01:49:48;;;;;;;2.95;1.45;;;;;;;18.77;36.33;102025.03;6190972;23;20029;-63
2023/06/04 01:52:17;;;;;;;4.00;1.80;;;;;;;18.76;36.32;102019.81;6189264;23;20028;-64
2023/06/04 01:54:45;;;;;;;4.43;1.73;;;;;;;18.73;36.40;102018.41;6191925;23;20056;-61
2023/06/04 01:57:13;;;;;;;4.78;1.40;;;;;;;18.71;36.54;102023.28;6191015;23;20044;-63
2023/06/04 01:59:42;;;;;;;3.13;1.58;;;;;;;18.70;36.65;102027.09;6191983;23;20056;-63
2023/06/04 02:02:10;;;;;;;5.03;1.55;;;;;;;18.68;36.81;102023.78;6192290;23;20043;-64
2023/06/04 02:04:41;;;;;;;6.05;1.50;;;;;;;18.65;36.72;102018.81;6193924;23;20056;-64
2023/06/04 02:07:10;;;;;;;3.38;1.20;;;;;;;18.65;36.84;102026.16;6192191;23;20060;-64
2023/06/04 02:09:38;;;;;;;5.78;1.58;;;;;;;18.63;36.96;102028.31;6192274;23;20052;-64
2023/06/04 02:12:06;;;;;;;3.90;1.42;;;;;;;18.63;36.87;102025.59;6191469;23;20052;-64
2023/06/04 02:14:34;;;;;;;2.97;1.40;;;;;;;18.61;36.80;102023.13;6191759;23;20036;-63
2023/06/04 02:17:04;;;;;;;3.15;1.88;;;;;;;18.60;36.97;102018.72;6191433;23;20055;-63
2023/06/04 02:19:33;;;;;;;4.82;1.60;;;;;;;18.58;36.89;102020.84;6190749;23;20025;-64
2023/06/04 02:22:01;;;;;;;3.15;1.40;;;;;;;18.57;37.11;102015.66;6190970;23;20028;-64
2023/06/04 02:24:28;;;;;;;5.32;1.52;;;;;;;18.54;37.20;102020.53;6189874;23;20025;-65
2023/06/04 02:26:56;;;;;;;2.67;1.30;;;;;;;18.53;37.06;102020.75;6189841;23;20028;-64
2023/06/04 02:29:25;;;;;;;3.42;1.48;;;;;;;18.51;37.09;102023.72;6191527;23;20024;-65
2023/06/04 02:31:52;;;;;;;4.32;1.52;;;;;;;18.51;37.17;102022.91;6190881;23;20120;-64
2023/06/04 02:34:23;;;;;;;4.70;1.30;;;;;;;18.48;37.37;102026.13;6191404;23;20025;-64
2023/06/04 02:36:50;;;;;;;1.42;1.20;;;;;;;18.46;37.38;102022.81;6191679;23;20040;-64
2023/06/04 02:39:19;;;;;;;5.63;1.27;;;;;;;18.44;37.30;102019.50;6193241;23;20029;-64
2023/06/04 02:41:46;;;;;;;5.85;2.00;;;;;;;18.44;37.43;102022.25;6190996;23;20091;-64
2023/06/04 02:44:14;;;;;;;4.88;1.42;;;;;;;18.41;37.44;102018.13;6191078;23;20276;-64
2023/06/04 02:46:42;;;;;;;2.60;1.20;;;;;;;18.38;37.65;102020.50;6192020;23;20029;-64
2023/06/04 02:49:13;;;;;;;2.60;1.45;;;;;;;18.28;37.78;102001.25;6191117;23;20060;-63
2023/06/04 02:51:42;;;;;;;6.85;1.80;;;;;;;18.34;37.74;102024.78;6191038;23;20031;-64
2023/06/04 02:54:10;;;;;;;2.72;1.40;;;;;;;18.30;37.81;102016.28;6191909;23;20356;-63
2023/06/04 02:56:39;;;;;;;3.05;1.60;;;;;;;18.27;37.88;102022.22;6189638;23;20056;-64
2023/06/04 02:59:09;;;;;;;2.97;1.30;;;;;;;18.25;37.77;102027.06;6191669;23;20025;-62
2023/06/04 03:01:40;;;;;;;2.72;1.48;;;;;;;18.23;37.96;102023.78;6191904;23;22666;-64
2023/06/04 03:04:09;;;;;;;3.92;1.50;;;;;;;18.22;37.97;102022.13;6192342;23;20028;-63
2023/06/04 03:06:39;;;;;;;3.28;1.42;;;;;;;18.19;37.89;102019.88;6190554;23;20492;-64
2023/06/04 03:09:08;;;;;;;2.97;1.58;;;;;;;18.17;38.02;102027.47;6192038;23;20106;-63
2023/06/04 03:11:35;;;;;;;4.00;1.50;;;;;;;18.15;38.12;102021.44;6190343;23;20099;-64
2023/06/04 03:14:03;;;;;;;4.40;1.50;;;;;;;18.13;38.18;102032.56;6190466;23;20541;-63
2023/06/04 03:16:31;;;;;;;3.28;1.33;;;;;;;18.10;38.19;102027.63;6189766;23;20025;-66
2023/06/04 03:18:59;;;;;;;2.88;1.45;;;;;;;18.09;38.19;102031.41;6190749;23;20025;-64
2023/06/04 03:21:28;;;;;;;2.50;1.55;;;;;;;18.06;38.34;102023.72;6188849;23;20025;-64
2023/06/04 03:23:56;;;;;;;1.55;1.10;;;;;;;18.05;38.29;102022.06;6188438;23;20024;-64
2023/06/04 03:26:26;;;;;;;4.00;1.30;;;;;;;18.03;38.35;102026.09;6188252;23;20068;-63
2023/06/04 03:28:54;;;;;;;3.95;1.50;;;;;;;18.00;38.46;102019.25;6189876;23;20036;-63
2023/06/04 03:31:22;;;;;;;3.08;1.50;;;;;;;17.99;38.56;102028.47;6189638;23;20025;-64
2023/06/04 03:33:49;;;;;;;2.42;1.23;;;;;;;17.97;38.64;102025.19;6190197;23;21384;-63
2023/06/04 03:36:17;;;;;;;2.78;1.48;;;;;;;17.94;38.58;102024.84;6190742;23;20025;-63
2023/06/04 03:38:46;;;;;;;2.55;1.27;;;;;;;17.93;38.71;102023.19;6192370;23;20029;-64
2023/06/04 03:41:14;;;;;;;5.10;1.60;;;;;;;17.94;38.68;102022.13;6190984;23;20024;-62
2023/06/04 03:43:43;;;;;;;3.25;1.70;;;;;;;17.92;38.65;102022.34;6191176;23;20035;-64
2023/06/04 03:46:10;;;;;;;1.75;1.30;;;;;;;17.92;38.64;102018.81;6190968;23;20028;-64
2023/06/04 03:48:38;;;;;;;3.80;1.48;;;;;;;17.90;38.67;102021.78;6190702;23;20035;-64
2023/06/04 03:51:06;;;;;;;5.22;1.58;;;;;;;17.88;38.79;102016.56;6191639;23;20020;-64
2023/06/04 03:53:34;;;;;;;4.45;1.40;;;;;;;17.86;38.71;102018.72;6191089;23;20025;-62
2023/06/04 03:56:02;;;;;;;2.60;1.63;;;;;;;17.86;38.83;102018.72;6190641;23;20025;-63
2023/06/04 03:58:30;;;;;;;3.65;1.63;;;;;;;17.85;38.81;102021.69;6191067;23;20755;-62
2023/06/04 04:01:01;;;;;;;4.07;1.40;;;;;;;17.83;38.82;102021.91;6191691;23;20025;-64
2023/06/04 04:03:30;;;;;;;5.63;1.40;;;;;;;17.82;38.83;102030.31;6190738;23;20021;-62
2023/06/04 04:05:59;;;;;;;3.70;1.48;;;;;;;17.80;39.11;102024.28;6191730;23;20305;-63
2023/06/04 04:08:31;;;;;;;7.13;1.90;;;;;;;17.77;39.05;102030.22;6189968;23;20025;-63
2023/06/04 04:10:59;;;;;;;2.20;1.52;;;;;;;17.75;39.01;102032.34;6190325;23;20051;-64
2023/06/04 04:13:27;;;;;;;3.20;1.42;;;;;;;17.74;39.22;102034.25;6191838;23;20094;-61
2023/06/04 04:15:55;;;;;;;2.80;1.80;;;;;;;17.72;39.13;102028.22;6193747;23;20048;-65
2023/06/04 04:18:24;;;;;;;2.88;1.70;;;;;;;17.73;39.15;102038.03;6190204;23;20087;-65
2023/06/04 04:20:52;;;;;;;5.00;1.45;;;;;;;17.71;39.17;102033.91;6188709;23;20068;-65
2023/06/04 04:23:19;;;;;;;2.25;1.48;;;;;;;17.70;39.24;102035.78;6186424;23;20075;-63
2023/06/04 04:25:48;;;;;;;3.50;1.63;;;;;;;17.68;39.36;102034.38;6186116;23;20053;-64
2023/06/04 04:28:17;;;;;;;3.60;1.45;;;;;;;17.66;39.40;102037.34;6186805;23;20060;-64
2023/06/04 04:30:45;;;;;;;5.38;1.60;;;;;;;17.66;39.32;102031.06;6185980;23;20035;-64
2023/06/04 04:33:15;;;;;;;4.63;1.90;;;;;;;17.65;39.30;102041.09;6188205;23;20348;-64
2023/06/04 04:35:45;;;;;;;4.07;1.38;;;;;;;17.64;39.43;102034.00;6188608;23;20029;-64
2023/06/04 04:38:13;;;;;;;2.78;1.50;;;;;;;17.63;39.27;102039.69;6186612;23;20448;-64
2023/06/04 04:40:41;;;;;;;2.85;1.52;;;;;;;17.51;39.50;102034.25;6187975;23;20467;-65
2023/06/04 04:43:09;;;;;;;3.50;2.00;;;;;;;17.58;39.75;102041.22;6187294;23;20029;-64
2023/06/04 04:45:37;;;;;;;3.03;1.45;;;;;;;17.56;39.53;102043.34;6187949;23;20033;-65
2023/06/04 04:48:04;;;;;;;2.80;1.70;;;;;;;17.55;39.49;102041.69;6188496;23;20056;-63
2023/06/04 04:50:32;;;;;;;2.83;1.63;;;;;;;17.53;39.65;102043.00;6190196;23;20040;-65
2023/06/04 04:53:02;;;;;;;4.10;2.20;;;;;;;17.52;39.72;102044.06;6189878;23;20055;-62
2023/06/04 04:55:29;;;;;;;3.88;1.40;;;;;;;17.51;39.80;102039.69;6188896;23;20073;-64
2023/06/04 04:57:57;;;;;;;2.97;1.23;;;;;;;17.52;39.68;102035.91;6188095;23;20025;-63
2023/06/04 05:00:25;;;;;;;3.00;1.30;;;;;;;17.51;39.72;102032.38;6187707;23;20028;-64
2023/06/04 05:02:53;;;;;;;2.28;1.50;;;;;;;17.51;39.44;102032.38;6186803;23;20029;-62
2023/06/04 05:05:21;;;;;;;3.03;1.40;;;;;;;17.53;39.50;102034.84;6187812;23;20080;-60
2023/06/04 05:07:49;;;;;;;2.58;1.40;;;;;;;17.53;39.46;102043.00;6187950;23;20039;-62
2023/06/04 05:10:18;;;;;;;3.92;1.50;;;;;;;17.54;39.45;102037.31;6187615;23;20029;-65
2023/06/04 05:12:52;;;;;;;2.25;1.30;;;;;;;17.56;39.76;102053.41;6188938;23;20033;-67
2023/06/04 05:15:21;;;;;;;2.72;1.50;;;;;;;17.56;39.58;102042.53;6188193;23;20056;-65
2023/06/04 05:17:49;;;;;;;2.65;1.45;;;;;;;17.58;39.28;102045.81;6188306;23;20028;-64
2023/06/04 05:20:17;;;;;;;4.38;2.25;;;;;;;17.61;39.49;102055.41;6188266;23;20025;-66
2023/06/04 05:22:45;;;;;;;3.03;1.42;;;;;;;17.61;39.46;102048.06;6188397;23;20083;-63
2023/06/04 05:25:13;;;;;;;7.60;1.48;;;;;;;17.60;39.43;102051.03;6188391;23;20029;-68
2023/06/04 05:27:42;;;;;;;4.30;2.03;;;;;;;17.63;39.54;102047.84;6188924;23;20095;-67
2023/06/04 05:30:11;;;;;;;2.55;1.40;;;;;;;17.62;39.70;102054.34;6186890;23;20025;-69
2023/06/04 05:32:40;;;;;;;3.55;1.60;;;;;;;17.66;39.59;102047.38;6187854;23;20059;-66
2023/06/04 05:35:09;;;;;;;4.30;1.98;;;;;;;17.67;39.63;102038.97;6186187;23;20031;-67
2023/06/04 05:37:40;;;;;;;1.83;1.40;;;;;;;17.71;39.81;102042.06;6186191;23;20029;-66
2023/06/04 05:40:10;;;;;;;2.97;1.10;;;;;;;17.72;39.75;102036.38;6187398;23;20029;-66
2023/06/04 05:42:38;;;;;;;4.25;1.65;;;;;;;17.74;39.76;102038.84;6188233;23;20431;-66
2023/06/04 05:45:09;;;;;;;4.05;1.80;;;;;;;17.76;39.69;102042.16;6187763;23;20074;-67
2023/06/04 05:47:37;;;;;;;6.18;1.70;;;;;;;17.78;39.69;102040.03;6189159;23;20025;-67
2023/06/04 05:50:06;;;;;;;2.70;1.40;;;;;;;17.79;39.92;102038.97;6190946;23;20048;-67
2023/06/04 05:52:35;;;;;;;1.80;1.27;;;;;;;17.79;39.97;102039.78;6190150;23;20033;-67
2023/06/04 05:55:03;;;;;;;4.03;1.75;;;;;;;17.80;39.88;102049.59;6189359;23;20025;-66
2023/06/04 05:57:31;;;;;;;3.55;1.40;;;;;;;17.81;39.89;102053.13;6189609;23;20025;-68
2023/06/04 05:59:58;;;;;;;2.22;1.20;;;;;;;17.83;39.89;102051.84;6189930;23;20418;-66
2023/06/04 06:02:27;;;;;;;3.40;1.48;;;;;;;17.86;39.86;102061.41;6189929;23;20080;-67
2023/06/04 06:04:56;;;;;;;2.95;1.48;;;;;;;17.79;39.86;102037.06;6190918;23;20493;-67
2023/06/04 06:07:23;;;;;;;3.40;1.50;;;;;;;17.90;39.93;102048.97;6189125;23;20031;-66
2023/06/04 06:09:52;;;;;;;2.55;1.30;;;;;;;17.92;39.84;102046.00;6190647;23;20029;-65
2023/06/04 06:12:19;;;;;;;2.28;1.30;;;;;;;17.94;39.80;102052.03;6189472;23;20348;-67
2023/06/04 06:14:48;;;;;;;4.75;2.10;;;;;;;17.96;39.92;102050.72;6190335;23;20029;-64
2023/06/04 06:17:16;;;;;;;3.35;1.98;;;;;;;17.96;40.14;102052.63;6186430;23;20029;-66
2023/06/04 06:19:45;;;;;;;5.95;1.77;;;;;;;17.94;40.08;102055.59;6187180;23;20025;-66
2023/06/04 06:22:13;;;;;;;5.70;1.42;;;;;;;17.94;40.12;102061.03;6185687;23;20039;-67
2023/06/04 06:24:41;;;;;;;4.43;1.92;;;;;;;17.98;40.23;102056.75;6187746;23;20025;-67
2023/06/04 06:27:09;;;;;;;2.53;1.33;;;;;;;18.00;40.15;102057.34;6186390;23;21216;-66
2023/06/04 06:29:39;;;;;;;5.13;1.40;;;;;;;18.02;40.04;102063.38;6186385;23;20056;-68
2023/06/04 06:32:06;;;;;;;4.53;1.80;;;;;;;18.05;39.97;102067.50;6187346;23;20087;-65
2023/06/04 06:34:34;;;;;;;3.45;1.48;;;;;;;18.08;40.06;102067.84;6188088;23;20060;-65
2023/06/04 06:37:05;;;;;;;3.67;1.48;;;;;;;18.11;39.99;102066.53;6187962;23;20029;-67
2023/06/04 06:39:33;;;;;;;2.60;1.40;;;;;;;18.12;40.10;102068.19;6188125;23;20060;-67
2023/06/04 06:42:01;;;;;;;4.68;1.40;;;;;;;18.13;39.98;102065.22;6188111;23;20025;-66
2023/06/04 06:44:28;;;;;;;1.95;1.27;;;;;;;18.15;39.80;102068.53;6188095;23;20029;-67
2023/06/04 06:46:56;;;;;;;2.38;1.40;;;;;;;18.16;39.93;102072.91;6188680;23;20029;-68
2023/06/04 06:49:24;;;;;;;2.22;1.27;;;;;;;18.17;39.92;102071.00;6189091;23;20029;-65
2023/06/04 06:51:52;;;;;;;2.15;1.35;;;;;;;18.18;39.78;102078.09;6188437;23;20048;-65
2023/06/04 06:54:21;;;;;;;2.10;1.25;;;;;;;18.20;39.82;102078.69;6189000;23;20355;-65
2023/06/04 06:56:50;;;;;;;4.63;1.33;;;;;;;18.20;39.88;102082.22;6187843;23;20032;-68
2023/06/04 06:59:18;;;;;;;3.53;1.25;;;;;;;18.21;39.81;102078.44;6188220;23;20105;-66
2023/06/04 07:01:47;;;;;;;4.97;1.45;;;;;;;18.22;39.73;102081.97;6188089;23;20056;-67
2023/06/04 07:04:15;;;;;;;2.15;1.52;;;;;;;18.23;39.69;102080.09;6188515;23;20028;-67
2023/06/04 07:06:42;;;;;;;2.33;1.45;;;;;;;18.22;39.67;102079.25;6187840;23;20135;-66
2023/06/04 07:09:10;;;;;;;2.15;1.27;;;;;;;18.21;39.48;102083.88;6187841;23;20024;-68
2023/06/04 07:11:40;;;;;;;3.92;1.73;;;;;;;18.19;39.52;102079.75;6188998;23;20024;-68
2023/06/04 07:14:07;;;;;;;3.08;1.23;;;;;;;18.23;39.35;102089.09;6189763;23;20037;-69
2023/06/04 07:16:35;;;;;;;4.03;1.40;;;;;;;18.25;39.44;102088.84;6189438;23;20498;-68
2023/06/04 07:19:03;;;;;;;4.45;1.42;;;;;;;18.25;39.57;102080.69;6189714;23;20501;-67
2023/06/04 07:21:31;;;;;;;1.58;1.20;;;;;;;18.26;39.46;102080.44;6189144;23;20087;-67
2023/06/04 07:23:59;;;;;;;2.75;1.75;;;;;;;18.27;39.56;102086.69;6188906;23;20032;-65
2023/06/04 07:26:30;;;;;;;2.45;1.55;;;;;;;18.20;39.44;102070.50;6187711;23;20025;-64
2023/06/04 07:29:02;;;;;;;2.90;1.08;;;;;;;18.30;39.36;102088.94;6188492;23;20079;-64
2023/06/04 07:31:30;;;;;;;2.13;1.10;;;;;;;18.30;39.48;102081.59;6187355;23;20029;-65
2023/06/04 07:33:58;;;;;;;3.10;1.40;;;;;;;18.30;39.32;102087.03;6186529;23;20028;-61
2023/06/04 07:36:26;;;;;;;2.08;1.15;;;;;;;18.32;39.07;102094.97;6186426;23;20029;-66
2023/06/04 07:38:54;;;;;;;2.47;1.23;;;;;;;18.30;39.12;102089.75;6188070;23;20072;-65
2023/06/04 07:41:21;;;;;;;6.15;1.70;;;;;;;18.33;38.76;102091.16;6186492;23;20028;-66
2023/06/04 07:43:49;;;;;;;6.80;2.03;;;;;;;18.33;38.90;102088.44;6192055;23;20068;-65
2023/06/04 07:46:19;;;;;;;7.53;1.13;;;;;;;18.33;39.40;102092.00;6192365;23;20021;-65
2023/06/04 07:48:47;;;;;;;6.53;1.63;;;;;;;18.35;39.11;102081.69;6191140;23;20104;-65
2023/06/04 07:51:15;;;;;;;3.28;1.38;;;;;;;18.36;38.94;102080.63;6190316;23;20475;-65
2023/06/04 07:53:44;;;;;;;2.65;1.23;;;;;;;18.39;39.03;102087.47;6191175;23;20025;-65
2023/06/04 07:56:12;;;;;;;2.78;1.40;;;;;;;18.42;39.03;102095.16;6190301;23;20455;-65
2023/06/04 07:58:40;;;;;;;3.95;1.27;;;;;;;18.40;38.99;102080.97;6191207;23;20033;-66
2023/06/04 08:01:08;;;;;;;1.55;1.05;;;;;;;18.46;38.90;102088.16;6190819;23;20025;-67
2023/06/04 08:03:38;;;;;;;3.03;1.55;;;;;;;18.47;38.88;102087.09;6191742;23;20036;-65
2023/06/04 08:06:07;;;;;;;4.18;1.20;;;;;;;18.50;38.97;102086.59;6190938;23;20029;-65
2023/06/04 08:08:34;;;;;;;6.80;1.48;;;;;;;18.51;38.81;102094.53;6191250;23;20424;-65
2023/06/04 08:11:02;;;;;;;2.55;1.30;;;;;;;18.53;38.64;102086.09;6190354;23;20029;-64
2023/06/04 08:13:30;;;;;;;2.35;1.25;;;;;;;18.56;38.89;102084.78;6192146;23;20077;-65
2023/06/04 08:15:58;;;;;;;3.20;1.27;;;;;;;18.60;38.93;102085.97;6191695;23;20545;-66
2023/06/04 08:18:26;;;;;;;2.67;1.75;;;;;;;18.62;38.80;102079.22;6192407;23;20024;-65
2023/06/04 08:20:55;;;;;;;3.20;1.40;;;;;;;18.65;38.70;102086.91;6191449;23;20025;-65
2023/06/04 08:23:23;;;;;;;1.38;1.05;;;;;;;18.69;38.58;102087.25;6189879;23;20076;-66
2023/06/04 08:25:51;;;;;;;2.00;1.20;;;;;;;18.70;38.65;102092.44;6190200;23;20039;-65
2023/06/04 08:28:19;;;;;;;1.83;0.88;;;;;;;18.74;38.48;102092.78;6191128;23;20080;-65
2023/06/04 08:30:47;;;;;;;2.63;1.38;;;;;;;18.74;38.37;102090.06;6190384;23;20117;-64
2023/06/04 08:33:15;;;;;;;2.92;1.15;;;;;;;18.75;38.27;102081.63;6191345;23;20398;-65
2023/06/04 08:35:43;;;;;;;2.95;1.50;;;;;;;18.76;38.11;102080.56;6190762;23;20032;-65
2023/06/04 08:38:12;;;;;;;3.00;1.10;;;;;;;18.79;37.96;102076.53;6190735;23;20021;-65
2023/06/04 08:40:40;;;;;;;2.88;1.20;;;;;;;18.82;38.08;102074.13;6189437;23;20029;-67
2023/06/04 08:43:08;;;;;;;2.00;1.42;;;;;;;18.87;38.21;102080.72;6191197;23;20035;-66
2023/06/04 08:45:40;;;;;;;1.83;1.00;;;;;;;18.89;38.17;102082.13;6190801;23;20040;-67
2023/06/04 08:48:12;;;;;;;1.08;0.98;;;;;;;18.90;38.11;102089.25;6191618;23;20029;-66
2023/06/04 08:50:43;;;;;;;2.47;1.08;;;;;;;18.92;38.11;102087.09;6190943;23;20033;-65
2023/06/04 08:53:15;;;;;;;4.03;1.30;;;;;;;18.94;37.95;102084.94;6192238;23;20083;-66
2023/06/04 08:55:43;;;;;;;1.77;1.00;;;;;;;18.96;37.71;102084.69;6192392;23;20029;-67
2023/06/04 08:58:12;;;;;;;4.65;1.10;;;;;;;18.99;37.77;102090.47;6191840;23;20029;-67
2023/06/04 09:00:40;;;;;;;1.92;1.30;;;;;;;19.02;37.64;102092.72;6190677;23;20049;-66
2023/06/04 09:03:10;;;;;;;1.48;1.17;;;;;;;19.04;37.56;102092.47;6192553;23;20025;-65
2023/06/04 09:05:42;;;;;;;2.78;1.17;;;;;;;19.09;37.33;102100.69;6190485;23;20037;-64
2023/06/04 09:08:13;;;;;;;2.45;1.17;;;;;;;19.11;37.49;102093.91;6190741;23;20039;-65
2023/06/04 09:10:42;;;;;;;1.50;0.93;;;;;;;19.16;37.51;102093.16;6190615;23;20021;-66
2023/06/04 09:13:11;;;;;;;4.75;1.13;;;;;;;19.19;37.66;102098.13;6192571;23;20064;-64
2023/06/04 09:15:39;;;;;;;2.38;1.00;;;;;;;19.22;37.51;102094.91;6190950;23;20059;-66
2023/06/04 09:18:07;;;;;;;3.78;1.27;;;;;;;19.26;37.35;102100.69;6192737;23;20025;-65
2023/06/04 09:20:35;;;;;;;1.60;1.35;;;;;;;19.26;37.41;102101.50;6192658;23;20077;-65
2023/06/04 09:23:15;;;;;;;4.00;1.27;;;;;;;19.27;36.83;102103.16;6192260;23;20025;-65
2023/06/04 09:25:44;;;;;;;3.10;1.15;;;;;;;19.30;36.53;102099.94;6191693;23;20457;-65
2023/06/04 09:28:11;;;;;;;2.40;1.30;;;;;;;19.33;36.68;102099.44;6193532;23;20079;-65
2023/06/04 09:30:39;;;;;;;4.35;1.13;;;;;;;19.38;37.01;102096.78;6191182;23;20032;-65
2023/06/04 09:33:08;;;;;;;2.80;1.10;;;;;;;19.41;36.52;102090.00;6191195;23;20025;-66
2023/06/04 09:35:36;;;;;;;3.47;1.30;;;;;;;19.46;36.68;102099.09;6191657;23;20033;-65
2023/06/04 09:38:06;;;;;;;0.95;0.80;;;;;;;19.50;36.62;102088.50;6192492;23;20025;-66
2023/06/04 09:40:39;;;;;;;1.80;1.30;;;;;;;19.56;36.60;102092.97;6191580;23;20079;-66
2023/06/04 09:43:07;;;;;;;1.02;0.93;;;;;;;19.61;36.59;102089.50;6193021;23;20025;-66
2023/06/04 09:45:36;;;;;;;1.40;1.08;;;;;;;19.66;36.71;102082.22;6191063;23;20075;-66
2023/06/04 09:48:04;;;;;;;1.77;1.15;;;;;;;19.66;36.71;102081.38;6192457;23;20089;-65
2023/06/04 09:50:38;;;;;;;1.17;1.02;;;;;;;19.76;36.83;102084.25;6191527;23;20350;-66
2023/06/04 09:53:14;;;;;;;2.67;1.30;;;;;;;19.77;36.57;102088.63;6191169;23;20447;-66
2023/06/04 09:55:43;;;;;;;1.58;1.10;;;;;;;19.80;36.60;102088.94;6190833;23;20029;-66
2023/06/04 09:58:13;;;;;;;1.55;1.23;;;;;;;19.79;36.25;102091.94;6186619;23;20156;-69
2023/06/04 10:00:42;;;;;;;5.47;1.48;;;;;;;19.78;36.19;102082.91;6187682;23;20029;-67
2023/06/04 10:03:15;;;;;;;2.22;0.95;;;;;;;19.73;36.25;102077.41;6188987;23;20029;-68
2023/06/04 10:05:44;;;;;;;3.20;1.00;;;;;;;19.79;35.97;102081.84;6187892;23;20028;-66
2023/06/04 10:08:17;;;;;;;1.83;0.95;;;;;;;19.86;36.23;102083.56;6193846;23;20087;-66
2023/06/04 10:10:47;;;;;;;1.45;0.95;;;;;;;19.89;35.63;102089.34;6192552;23;20029;-68
2023/06/04 10:13:18;;;;;;;2.05;1.05;;;;;;;19.92;35.39;102094.28;6194723;23;20120;-68
2023/06/04 10:15:47;;;;;;;2.40;1.15;;;;;;;19.95;35.77;102080.13;6194779;23;20033;-67
2023/06/04 10:18:16;;;;;;;2.28;1.17;;;;;;;19.98;35.92;102086.97;6195640;23;20032;-67
2023/06/04 10:20:44;;;;;;;1.80;1.10;;;;;;;19.99;35.83;102089.47;6195404;23;20025;-65
2023/06/04 10:23:13;;;;;;;1.35;1.00;;;;;;;20.10;36.22;102096.69;6192253;23;20025;-67
2023/06/04 10:25:41;;;;;;;1.33;0.88;;;;;;;20.05;36.20;102074.78;6189297;23;20102;-66
2023/06/04 10:28:10;;;;;;;1.52;1.00;;;;;;;20.13;35.44;102082.53;6190113;23;20029;-67
2023/06/04 10:30:38;;;;;;;2.95;1.30;;;;;;;20.10;34.96;102083.03;6189556;23;20036;-66
2023/06/04 10:33:06;;;;;;;2.05;0.93;;;;;;;20.19;35.95;102082.59;6190398;23;20025;-67
2023/06/04 10:35:35;;;;;;;3.22;1.30;;;;;;;20.22;35.68;102084.81;6188514;23;20029;-68
2023/06/04 10:38:10;;;;;;;2.92;0.90;;;;;;;20.23;35.20;102084.56;6187540;23;20036;-65
2023/06/04 10:40:39;;;;;;;2.72;1.17;;;;;;;20.23;34.80;102079.09;6186687;23;20053;-66
2023/06/04 10:43:08;;;;;;;1.20;0.90;;;;;;;20.25;35.05;102076.94;6187133;23;20087;-66
2023/06/04 10:45:37;;;;;;;2.70;1.05;;;;;;;20.29;35.13;102080.78;6185665;23;20040;-66
2023/06/04 10:48:07;;;;;;;2.38;1.00;;;;;;;20.32;34.67;102079.47;6185814;23;20733;-66
2023/06/04 10:50:47;;;;;;;2.67;1.13;;;;;;;20.37;34.81;102072.16;6186633;23;20024;-65
2023/06/04 10:53:15;;;;;;;2.92;0.93;;;;;;;20.43;35.50;102083.97;6185847;23;20025;-65
2023/06/04 10:55:45;;;;;;;3.05;1.30;;;;;;;20.50;35.54;102090.06;6185436;23;20040;-68
2023/06/04 10:58:13;;;;;;;1.60;1.05;;;;;;;20.54;35.04;102074.81;6185661;23;20109;-66
2023/06/04 11:00:45;;;;;;;2.15;1.20;;;;;;;20.60;35.25;102076.50;6184622;23;20056;-67
2023/06/04 11:03:14;;;;;;;1.70;0.98;;;;;;;20.66;35.58;102071.91;6186191;23;20058;-64
2023/06/04 11:05:43;;;;;;;2.05;1.10;;;;;;;20.72;35.11;102081.78;6185853;23;20493;-65
2023/06/04 11:08:13;;;;;;;6.15;2.00;;;;;;;20.79;35.77;102080.50;6186293;23;20052;-64
2023/06/04 11:10:42;;;;;;;6.32;1.92;;;;;;;20.87;35.86;102070.97;6185204;23;20549;-66
2023/06/04 11:13:10;;;;;;;2.10;1.00;;;;;;;21.05;30.71;102075.22;6187850;23;20029;-64
2023/06/04 11:15:39;;;;;;;3.22;1.10;;;;;;;21.07;31.80;102064.84;6186975;23;20052;-67
2023/06/04 11:18:15;;;;;;;4.53;1.10;;;;;;;20.99;33.04;102068.88;6187339;23;20111;-67
2023/06/04 11:20:43;;;;;;;2.92;1.13;;;;;;;20.94;32.41;102063.38;6186740;23;20506;-67
2023/06/04 11:23:13;;;;;;;2.35;1.08;;;;;;;20.91;33.53;102052.97;6186132;23;20303;-67
2023/06/04 11:25:42;;;;;;;1.65;1.20;;;;;;;20.95;33.74;102066.94;6186122;23;20652;-67
2023/06/04 11:28:16;;;;;;;5.63;1.88;;;;;;;20.98;34.00;102066.41;6186675;23;20024;-67
2023/06/04 11:30:44;;;;;;;5.28;1.65;;;;;;;21.02;33.59;102056.59;6186548;23;21396;-67